createdAt,value
2018-01-04T00:00:19.954Z,0
2018-01-04T00:01:20.658Z,0
2018-01-04T00:02:21.364Z,0
2018-01-04T00:03:22.083Z,0
2018-01-04T00:04:22.790Z,0
2018-01-04T00:05:23.495Z,0
2018-01-04T00:06:24.216Z,0
2018-01-04T00:07:24.922Z,0
2018-01-04T00:08:25.640Z,0
2018-01-04T00:09:26.359Z,0
2018-01-04T00:10:27.067Z,0
2018-01-04T00:11:27.770Z,0
2018-01-04T00:12:28.493Z,0
2018-01-04T00:13:29.199Z,0
2018-01-04T00:14:29.919Z,0
2018-01-04T00:15:30.624Z,0
2018-01-04T00:16:31.346Z,0
2018-01-04T00:17:32.066Z,0
2018-01-04T00:18:32.772Z,0
2018-01-04T00:19:33.479Z,0
2018-01-04T00:20:34.186Z,0
2018-01-04T00:21:34.897Z,0
2018-01-04T00:22:35.612Z,0
2018-01-04T00:23:36.332Z,0
2018-01-04T00:24:37.036Z,0
2018-01-04T00:25:37.755Z,0
2018-01-04T00:26:38.478Z,0
2018-01-04T00:27:39.184Z,0
2018-01-04T00:28:39.889Z,0
2018-01-04T00:29:40.594Z,0
2018-01-04T00:30:41.300Z,0
2018-01-04T00:31:42.005Z,0
2018-01-04T00:32:42.710Z,0
2018-01-04T00:33:43.414Z,0
2018-01-04T00:34:44.118Z,0
2018-01-04T00:35:44.825Z,0
2018-01-04T00:36:45.529Z,0
2018-01-04T00:37:46.234Z,0
2018-01-04T00:38:46.939Z,0
2018-01-04T00:39:47.644Z,0
2018-01-04T00:40:48.349Z,0
2018-01-04T00:41:49.055Z,0
2018-01-04T00:42:49.759Z,0
2018-01-04T00:43:50.463Z,0
2018-01-04T00:44:51.169Z,0
2018-01-04T00:45:51.875Z,0
2018-01-04T00:46:52.580Z,0
2018-01-04T00:47:53.283Z,0
2018-01-04T00:48:53.986Z,0
2018-01-04T00:49:54.692Z,0
2018-01-04T00:50:55.396Z,0
2018-01-04T00:51:56.115Z,0
2018-01-04T00:52:56.819Z,0
2018-01-04T00:53:57.523Z,0
2018-01-04T00:54:58.226Z,0
2018-01-04T00:55:58.933Z,0
2018-01-04T00:56:59.655Z,0
2018-01-04T00:58:00.360Z,0
2018-01-04T00:59:01.067Z,0
2018-01-04T01:00:01.773Z,0
2018-01-04T01:01:02.479Z,0
2018-01-04T01:02:03.199Z,0
2018-01-04T01:03:03.905Z,0
2018-01-04T01:04:04.610Z,0
2018-01-04T01:05:05.314Z,0
2018-01-04T01:06:06.019Z,0
2018-01-04T01:07:06.723Z,0
2018-01-04T01:08:07.430Z,0
2018-01-04T01:09:08.135Z,0
2018-01-04T01:10:08.841Z,0
2018-01-04T01:11:09.563Z,0
2018-01-04T01:12:10.271Z,0
2018-01-04T01:13:10.972Z,0
2018-01-04T01:14:11.677Z,0
2018-01-04T01:15:12.395Z,0
2018-01-04T01:16:13.115Z,0
2018-01-04T01:17:13.834Z,0
2018-01-04T01:18:14.539Z,0
2018-01-04T01:19:15.244Z,0
2018-01-04T01:20:15.949Z,0
2018-01-04T01:21:16.655Z,0
2018-01-04T01:22:17.360Z,0
2018-01-04T01:23:18.063Z,0
2018-01-04T01:24:18.767Z,0
2018-01-04T01:25:19.472Z,0
2018-01-04T01:26:20.192Z,0
2018-01-04T01:27:20.897Z,0
2018-01-04T01:28:21.611Z,0
2018-01-04T01:29:22.309Z,0
2018-01-04T01:30:23.014Z,0
2018-01-04T01:31:23.736Z,0
2018-01-04T01:32:24.455Z,0
2018-01-04T01:33:25.161Z,0
2018-01-04T01:34:25.869Z,0
2018-01-04T01:35:26.588Z,0
2018-01-04T01:36:27.292Z,0
2018-01-04T01:37:27.996Z,0
2018-01-04T01:38:28.702Z,0
2018-01-04T01:39:29.421Z,0
2018-01-04T01:40:30.126Z,0
2018-01-04T01:41:30.831Z,0
2018-01-04T01:42:31.537Z,0
2018-01-04T01:43:32.242Z,0
2018-01-04T01:44:32.952Z,0
2018-01-04T01:45:33.651Z,0
2018-01-04T01:46:34.355Z,0
2018-01-04T01:47:35.060Z,0
2018-01-04T01:48:35.765Z,0
2018-01-04T01:49:36.472Z,0
2018-01-04T01:50:37.188Z,0
2018-01-04T01:51:37.893Z,0
2018-01-04T01:52:38.614Z,0
2018-01-04T01:53:39.320Z,0
2018-01-04T01:54:40.029Z,0
2018-01-04T01:55:40.736Z,0
2018-01-04T01:56:41.457Z,0
2018-01-04T01:57:42.161Z,0
2018-01-04T01:58:42.866Z,0
2018-01-04T01:59:43.571Z,0
2018-01-04T02:00:44.277Z,0
2018-01-04T02:01:44.982Z,0
2018-01-04T02:02:45.686Z,0
2018-01-04T02:03:46.392Z,0
2018-01-04T02:04:47.096Z,0
2018-01-04T02:05:47.800Z,0
2018-01-04T02:06:48.523Z,0
2018-01-04T02:07:49.237Z,0
2018-01-04T02:08:49.943Z,0
2018-01-04T02:09:50.648Z,0
2018-01-04T02:10:51.353Z,0
2018-01-04T02:11:52.071Z,0
2018-01-04T02:12:52.776Z,0
2018-01-04T02:13:53.494Z,0
2018-01-04T02:14:54.199Z,0
2018-01-04T02:15:54.904Z,0
2018-01-04T02:16:55.626Z,0
2018-01-04T02:17:56.330Z,0
2018-01-04T02:18:57.034Z,0
2018-01-04T02:19:57.738Z,0
2018-01-04T02:20:58.456Z,0
2018-01-04T02:21:59.160Z,0
2018-01-04T02:22:59.865Z,0
2018-01-04T02:24:00.582Z,0
2018-01-04T02:25:01.286Z,0
2018-01-04T02:26:02.008Z,0
2018-01-04T02:27:02.725Z,0
2018-01-04T02:28:03.440Z,0
2018-01-04T02:29:04.146Z,0
2018-01-04T02:30:04.851Z,0
2018-01-04T02:31:05.558Z,0
2018-01-04T02:32:06.262Z,0
2018-01-04T02:33:06.967Z,0
2018-01-04T02:34:07.671Z,0
2018-01-04T02:35:08.376Z,0
2018-01-04T02:36:09.079Z,0
2018-01-04T02:37:09.797Z,0
2018-01-04T02:38:10.517Z,0
2018-01-04T02:39:11.231Z,0
2018-01-04T02:40:11.950Z,0
2018-01-04T02:41:12.668Z,0
2018-01-04T02:42:13.373Z,0
2018-01-04T02:43:14.078Z,0
2018-01-04T02:44:14.782Z,0
2018-01-04T02:45:15.487Z,0
2018-01-04T02:46:16.192Z,0
2018-01-04T02:47:16.897Z,0
2018-01-04T02:48:17.600Z,0
2018-01-04T02:49:18.317Z,0
2018-01-04T02:50:19.023Z,0
2018-01-04T02:51:19.743Z,0
2018-01-04T02:52:20.447Z,0
2018-01-04T02:53:21.154Z,0
2018-01-04T02:54:21.856Z,0
2018-01-04T02:55:22.562Z,0
2018-01-04T02:56:23.281Z,0
2018-01-04T02:57:23.984Z,0
2018-01-04T02:58:24.690Z,0
2018-01-04T02:59:25.394Z,0
2018-01-04T03:00:26.101Z,0
2018-01-04T03:01:26.806Z,0
2018-01-04T03:02:27.511Z,0
2018-01-04T03:03:28.217Z,0
2018-01-04T03:04:28.921Z,0
2018-01-04T03:05:29.638Z,0
2018-01-04T03:06:30.344Z,0
2018-01-04T03:07:31.048Z,0
2018-01-04T03:08:31.764Z,0
2018-01-04T03:09:32.468Z,0
2018-01-04T03:10:33.187Z,0
2018-01-04T03:11:33.903Z,0
2018-01-04T03:12:34.620Z,0
2018-01-04T03:13:35.338Z,0
2018-01-04T03:14:36.043Z,0
2018-01-04T03:15:36.763Z,0
2018-01-04T03:16:37.469Z,0
2018-01-04T03:17:38.185Z,0
2018-01-04T03:18:38.888Z,0
2018-01-04T03:19:39.607Z,0
2018-01-04T03:20:40.325Z,0
2018-01-04T03:21:41.048Z,0
2018-01-04T03:22:41.748Z,0
2018-01-04T03:23:42.452Z,0
2018-01-04T03:24:43.157Z,0
2018-01-04T03:25:43.861Z,0
2018-01-04T03:26:44.565Z,0
2018-01-04T03:27:45.269Z,0
2018-01-04T03:28:45.986Z,0
2018-01-04T03:29:46.690Z,0
2018-01-04T03:30:47.396Z,0
2018-01-04T03:31:48.099Z,0
2018-01-04T03:32:48.804Z,0
2018-01-04T03:33:49.510Z,0
2018-01-04T03:34:50.215Z,0
2018-01-04T03:35:50.918Z,0
2018-01-04T03:36:51.623Z,0
2018-01-04T03:37:52.342Z,0
2018-01-04T03:38:53.046Z,0
2018-01-04T03:39:53.751Z,0
2018-01-04T03:40:54.468Z,0
2018-01-04T03:41:55.172Z,0
2018-01-04T03:42:55.894Z,0
2018-01-04T03:43:56.600Z,0
2018-01-04T03:44:57.319Z,0
2018-01-04T03:45:58.025Z,0
2018-01-04T03:46:58.727Z,0
2018-01-04T03:47:59.432Z,0
2018-01-04T03:49:00.136Z,0
2018-01-04T03:50:00.841Z,0
2018-01-04T03:51:01.547Z,0
2018-01-04T03:52:02.303Z,0
2018-01-04T03:53:02.959Z,0
2018-01-04T03:54:03.663Z,0
2018-01-04T03:55:04.371Z,0
2018-01-04T03:56:05.074Z,0
2018-01-04T03:57:05.778Z,0
2018-01-04T03:58:06.482Z,0
2018-01-04T03:59:07.188Z,0
2018-01-04T04:00:07.891Z,0
2018-01-04T04:01:08.596Z,0
2018-01-04T04:02:09.305Z,0
2018-01-04T04:03:10.007Z,0
2018-01-04T04:04:10.712Z,0
2018-01-04T04:05:11.417Z,0
2018-01-04T04:06:12.120Z,0
2018-01-04T04:07:12.825Z,0
2018-01-04T04:08:13.529Z,0
2018-01-04T04:09:14.235Z,0
2018-01-04T04:10:14.939Z,0
2018-01-04T04:11:15.642Z,0
2018-01-04T04:12:16.347Z,0
2018-01-04T04:13:17.052Z,0
2018-01-04T04:14:17.757Z,0
2018-01-04T04:15:18.462Z,0
2018-01-04T04:16:19.174Z,0
2018-01-04T04:17:19.874Z,0
2018-01-04T04:18:20.591Z,0
2018-01-04T04:19:21.298Z,0
2018-01-04T04:20:22.001Z,0
2018-01-04T04:21:22.706Z,0
2018-01-04T04:22:23.412Z,0
2018-01-04T04:23:24.116Z,0
2018-01-04T04:24:24.832Z,0
2018-01-04T04:25:25.541Z,0
2018-01-04T04:26:26.258Z,0
2018-01-04T04:27:26.976Z,0
2018-01-04T04:28:27.694Z,0
2018-01-04T04:29:28.399Z,0
2018-01-04T04:30:29.101Z,0
2018-01-04T04:31:29.807Z,0
2018-01-04T04:32:30.525Z,0
2018-01-04T04:33:31.230Z,0
2018-01-04T04:34:31.935Z,0
2018-01-04T04:35:32.654Z,0
2018-01-04T04:36:33.358Z,0
2018-01-04T04:37:34.064Z,0
2018-01-04T04:38:34.779Z,0
2018-01-04T04:39:35.499Z,0
2018-01-04T04:40:36.204Z,0
2018-01-04T04:41:36.922Z,0
2018-01-04T04:42:37.625Z,0
2018-01-04T04:43:38.331Z,0
2018-01-04T04:44:39.035Z,0
2018-01-04T04:45:39.741Z,0
2018-01-04T04:46:40.443Z,0
2018-01-04T04:47:41.158Z,0
2018-01-04T04:48:41.863Z,0
2018-01-04T04:49:42.569Z,0
2018-01-04T04:50:43.285Z,0
2018-01-04T04:51:43.992Z,0
2018-01-04T04:52:44.696Z,0
2018-01-04T04:53:45.400Z,0
2018-01-04T04:54:46.109Z,0
2018-01-04T04:55:46.824Z,0
2018-01-04T04:56:47.530Z,0
2018-01-04T04:57:48.246Z,0
2018-01-04T04:58:48.951Z,0
2018-01-04T04:59:49.667Z,0
2018-01-04T05:00:50.387Z,0
2018-01-04T05:01:51.092Z,0
2018-01-04T05:02:51.797Z,0
2018-01-04T05:03:52.517Z,0
2018-01-04T05:04:53.235Z,0
2018-01-04T05:05:53.939Z,0
2018-01-04T05:06:54.643Z,0
2018-01-04T05:07:55.348Z,0
2018-01-04T05:08:56.053Z,0
2018-01-04T05:09:56.757Z,0
2018-01-04T05:10:57.475Z,0
2018-01-04T05:11:58.180Z,0
2018-01-04T05:12:58.887Z,0
2018-01-04T05:13:59.598Z,0
2018-01-04T05:15:00.315Z,0
2018-01-04T05:16:01.018Z,0
2018-01-04T05:17:01.723Z,0
2018-01-04T05:18:02.428Z,0
2018-01-04T05:19:03.132Z,0
2018-01-04T05:20:03.837Z,0
2018-01-04T05:21:04.541Z,0
2018-01-04T05:22:05.248Z,0
2018-01-04T05:23:05.951Z,0
2018-01-04T05:24:06.654Z,0
2018-01-04T05:25:07.358Z,0
2018-01-04T05:26:08.060Z,0
2018-01-04T05:27:08.765Z,0
2018-01-04T05:28:09.482Z,0
2018-01-04T05:29:10.201Z,0
2018-01-04T05:30:10.908Z,0
2018-01-04T05:31:11.611Z,0
2018-01-04T05:32:12.340Z,0
2018-01-04T05:33:13.049Z,0
2018-01-04T05:34:13.745Z,0
2018-01-04T05:35:14.463Z,0
2018-01-04T05:36:15.169Z,0
2018-01-04T05:37:15.890Z,0
2018-01-04T05:38:16.657Z,0
2018-01-04T05:39:17.313Z,0
2018-01-04T05:40:18.016Z,0
2018-01-04T05:41:18.721Z,0
2018-01-04T05:42:19.427Z,0
2018-01-04T05:43:20.136Z,0
2018-01-04T05:44:20.886Z,0
2018-01-04T05:45:21.593Z,0
2018-01-04T05:46:22.298Z,0
2018-01-04T05:47:23.017Z,0
2018-01-04T05:48:23.719Z,0
2018-01-04T05:49:24.426Z,0
2018-01-04T05:50:25.133Z,0
2018-01-04T05:51:25.834Z,0
2018-01-04T05:52:26.541Z,0
2018-01-04T05:53:27.247Z,0
2018-01-04T05:54:27.949Z,0
2018-01-04T05:55:28.657Z,0
2018-01-04T05:56:29.375Z,0
2018-01-04T05:57:30.081Z,0
2018-01-04T05:58:30.787Z,0
2018-01-04T05:59:31.492Z,0
2018-01-04T06:00:32.209Z,0
2018-01-04T06:01:32.914Z,0
2018-01-04T06:02:33.620Z,0
2018-01-04T06:03:34.325Z,0
2018-01-04T06:04:35.030Z,0
2018-01-04T06:05:35.735Z,0
2018-01-04T06:06:36.452Z,0
2018-01-04T06:07:37.157Z,0
2018-01-04T06:08:37.878Z,0
2018-01-04T06:09:38.583Z,0
2018-01-04T06:10:39.287Z,0
2018-01-04T06:11:40.007Z,0
2018-01-04T06:12:40.713Z,0
2018-01-04T06:13:41.416Z,0
2018-01-04T06:14:42.134Z,0
2018-01-04T06:15:42.861Z,0
2018-01-04T06:16:43.579Z,0
2018-01-04T06:17:44.283Z,0
2018-01-04T06:18:45.036Z,0
2018-01-04T06:19:45.754Z,0
2018-01-04T06:20:46.462Z,0
2018-01-04T06:21:47.166Z,0
2018-01-04T06:22:47.871Z,0
2018-01-04T06:23:48.575Z,0
2018-01-04T06:24:49.281Z,0
2018-01-04T06:25:49.986Z,0
2018-01-04T06:26:50.693Z,0
2018-01-04T06:27:51.396Z,0
2018-01-04T06:28:52.101Z,0
2018-01-04T06:29:52.807Z,0
2018-01-04T06:30:53.529Z,0
2018-01-04T06:31:54.231Z,0
2018-01-04T06:32:54.945Z,0
2018-01-04T06:33:55.651Z,0
2018-01-04T06:34:56.356Z,0
2018-01-04T06:35:57.061Z,0
2018-01-04T06:36:57.765Z,0
2018-01-04T06:37:58.470Z,0
2018-01-04T06:38:59.174Z,0
2018-01-04T06:39:59.880Z,0
2018-01-04T06:41:00.604Z,0
2018-01-04T06:42:01.309Z,0
2018-01-04T06:43:02.026Z,0
2018-01-04T06:44:02.732Z,0
2018-01-04T06:45:03.439Z,0
2018-01-04T06:46:04.144Z,0
2018-01-04T06:47:04.899Z,0
2018-01-04T06:48:05.603Z,0
2018-01-04T06:49:06.308Z,0
2018-01-04T06:50:07.028Z,0
2018-01-04T06:51:07.745Z,0
2018-01-04T06:52:08.463Z,0
2018-01-04T06:53:09.167Z,0
2018-01-04T06:54:09.872Z,0
2018-01-04T06:55:10.577Z,0
2018-01-04T06:56:11.281Z,0
2018-01-04T06:57:12.000Z,0
2018-01-04T06:58:12.707Z,0
2018-01-04T06:59:13.411Z,0
2018-01-04T07:00:14.117Z,0
2018-01-04T07:01:14.823Z,0
2018-01-04T07:02:15.527Z,0
2018-01-04T07:03:16.231Z,0
2018-01-04T07:04:16.936Z,0
2018-01-04T07:05:17.644Z,0
2018-01-04T07:06:18.348Z,0
2018-01-04T07:07:19.062Z,0
2018-01-04T07:08:19.779Z,0
2018-01-04T07:09:20.484Z,0
2018-01-04T07:10:21.204Z,0
2018-01-04T07:11:21.909Z,0
2018-01-04T07:12:22.616Z,0
2018-01-04T07:13:23.334Z,0
2018-01-04T07:14:24.041Z,0
2018-01-04T07:15:24.747Z,0
2018-01-04T07:16:25.467Z,0
2018-01-04T07:17:26.173Z,0
2018-01-04T07:18:26.892Z,0
2018-01-04T07:19:27.649Z,0
2018-01-04T07:20:28.356Z,0
2018-01-04T07:21:29.062Z,0
2018-01-04T07:22:29.782Z,0
2018-01-04T07:23:30.490Z,0
2018-01-04T07:24:31.201Z,0
2018-01-04T07:25:31.908Z,0
2018-01-04T07:26:32.628Z,0
2018-01-04T07:27:33.333Z,0
2018-01-04T07:28:34.087Z,0
2018-01-04T07:29:34.807Z,0
2018-01-04T07:30:35.517Z,0
2018-01-04T07:31:36.221Z,0
2018-01-04T07:32:36.926Z,0
2018-01-04T07:33:37.632Z,0
2018-01-04T07:34:38.337Z,0
2018-01-04T07:35:39.044Z,0
2018-01-04T07:36:39.784Z,0
2018-01-04T07:37:40.490Z,0
2018-01-04T07:38:41.196Z,0
2018-01-04T07:39:41.907Z,0
2018-01-04T07:40:42.608Z,0
2018-01-04T07:41:43.315Z,0
2018-01-04T07:42:44.019Z,0
2018-01-04T07:43:44.724Z,0
2018-01-04T07:44:45.431Z,0
2018-01-04T07:45:46.138Z,0
2018-01-04T07:46:46.860Z,0
2018-01-04T07:47:47.578Z,5
2018-01-04T07:48:48.287Z,5
2018-01-04T07:49:49.009Z,5
2018-01-04T07:50:49.728Z,5
2018-01-04T07:51:50.438Z,5
2018-01-04T07:52:51.144Z,5
2018-01-04T07:53:51.868Z,5
2018-01-04T07:54:52.591Z,5
2018-01-04T07:55:53.296Z,5
2018-01-04T07:56:54.004Z,5
2018-01-04T07:57:54.714Z,5
2018-01-04T07:58:55.423Z,5
2018-01-04T07:59:56.131Z,5
2018-01-04T08:00:56.838Z,5
2018-01-04T08:01:57.557Z,5
2018-01-04T08:02:58.264Z,5
2018-01-04T08:03:58.987Z,10
2018-01-04T08:04:59.697Z,10
2018-01-04T08:06:00.419Z,10
2018-01-04T08:07:01.128Z,10
2018-01-04T08:08:01.836Z,10
2018-01-04T08:09:02.544Z,10
2018-01-04T08:10:03.268Z,10
2018-01-04T08:11:03.987Z,10
2018-01-04T08:12:04.696Z,10
2018-01-04T08:13:05.420Z,10
2018-01-04T08:14:06.142Z,5
2018-01-04T08:15:06.852Z,5
2018-01-04T08:16:07.561Z,10
2018-01-04T08:17:08.268Z,10
2018-01-04T08:18:08.976Z,10
2018-01-04T08:19:09.698Z,10
2018-01-04T08:20:10.407Z,10
2018-01-04T08:21:11.127Z,10
2018-01-04T08:22:11.837Z,10
2018-01-04T08:23:12.545Z,10
2018-01-04T08:24:13.254Z,10
2018-01-04T08:25:13.962Z,15
2018-01-04T08:26:14.672Z,15
2018-01-04T08:27:15.383Z,15
2018-01-04T08:28:16.089Z,15
2018-01-04T08:29:16.799Z,15
2018-01-04T08:30:17.507Z,15
2018-01-04T08:31:18.216Z,20
2018-01-04T08:32:18.925Z,20
2018-01-04T08:33:19.636Z,25
2018-01-04T08:34:20.344Z,20
2018-01-04T08:35:21.066Z,20
2018-01-04T08:36:21.775Z,20
2018-01-04T08:37:22.482Z,20
2018-01-04T08:38:23.206Z,20
2018-01-04T08:39:23.912Z,15
2018-01-04T08:40:24.620Z,15
2018-01-04T08:41:25.327Z,15
2018-01-04T08:42:26.035Z,15
2018-01-04T08:43:26.747Z,10
2018-01-04T08:44:27.468Z,10
2018-01-04T08:45:28.178Z,10
2018-01-04T08:46:28.887Z,10
2018-01-04T08:47:29.596Z,15
2018-01-04T08:48:30.310Z,15
2018-01-04T08:49:31.013Z,20
2018-01-04T08:50:31.723Z,20
2018-01-04T08:51:32.446Z,20
2018-01-04T08:52:33.155Z,20
2018-01-04T08:53:33.865Z,20
2018-01-04T08:54:34.575Z,20
2018-01-04T08:55:35.285Z,25
2018-01-04T08:56:35.993Z,25
2018-01-04T08:57:36.704Z,20
2018-01-04T08:58:37.424Z,20
2018-01-04T08:59:38.133Z,20
2018-01-04T09:00:38.842Z,20
2018-01-04T09:01:39.550Z,20
2018-01-04T09:02:40.258Z,20
2018-01-04T09:03:40.973Z,15
2018-01-04T09:04:41.690Z,15
2018-01-04T09:05:42.400Z,15
2018-01-04T09:06:43.109Z,20
2018-01-04T09:07:43.818Z,25
2018-01-04T09:08:44.539Z,25
2018-01-04T09:09:45.246Z,25
2018-01-04T09:10:45.971Z,25
2018-01-04T09:11:46.679Z,25
2018-01-04T09:12:47.400Z,25
2018-01-04T09:13:48.109Z,20
2018-01-04T09:14:48.818Z,20
2018-01-04T09:15:49.541Z,20
2018-01-04T09:16:50.250Z,25
2018-01-04T09:17:50.959Z,35
2018-01-04T09:18:51.683Z,40
2018-01-04T09:19:52.407Z,35
2018-01-04T09:20:53.117Z,40
2018-01-04T09:21:53.828Z,45
2018-01-04T09:22:54.542Z,50
2018-01-04T09:23:55.267Z,50
2018-01-04T09:24:55.976Z,50
2018-01-04T09:25:56.686Z,55
2018-01-04T09:26:57.395Z,60
2018-01-04T09:27:58.107Z,60
2018-01-04T09:28:58.817Z,60
2018-01-04T09:29:59.529Z,60
2018-01-04T09:31:00.238Z,60
2018-01-04T09:32:00.950Z,60
2018-01-04T09:33:01.662Z,60
2018-01-04T09:34:02.372Z,60
2018-01-04T09:35:03.082Z,60
2018-01-04T09:36:03.792Z,60
2018-01-04T09:37:04.505Z,65
2018-01-04T09:38:05.215Z,65
2018-01-04T09:39:05.926Z,65
2018-01-04T09:40:06.650Z,65
2018-01-04T09:41:07.362Z,70
2018-01-04T09:42:08.073Z,70
2018-01-04T09:43:08.784Z,65
2018-01-04T09:44:09.500Z,60
2018-01-04T09:45:10.220Z,50
2018-01-04T09:46:10.930Z,45
2018-01-04T09:47:11.641Z,40
2018-01-04T09:48:12.352Z,40
2018-01-04T09:49:13.065Z,50
2018-01-04T09:50:13.773Z,50
2018-01-04T09:51:14.499Z,50
2018-01-04T09:52:15.208Z,45
2018-01-04T09:53:15.931Z,40
2018-01-04T09:54:16.641Z,40
2018-01-04T09:55:17.352Z,35
2018-01-04T09:56:18.064Z,35
2018-01-04T09:57:18.775Z,30
2018-01-04T09:58:19.483Z,30
2018-01-04T09:59:20.192Z,30
2018-01-04T10:00:20.903Z,30
2018-01-04T10:01:21.622Z,35
2018-01-04T10:02:22.349Z,30
2018-01-04T10:03:23.060Z,30
2018-01-04T10:04:23.769Z,35
2018-01-04T10:05:24.484Z,35
2018-01-04T10:06:25.192Z,30
2018-01-04T10:07:25.900Z,35
2018-01-04T10:08:26.614Z,35
2018-01-04T10:09:27.337Z,35
2018-01-04T10:10:28.058Z,35
2018-01-04T10:11:28.781Z,35
2018-01-04T10:12:29.506Z,35
2018-01-04T10:13:30.230Z,40
2018-01-04T10:14:30.955Z,35
2018-01-04T10:15:31.666Z,40
2018-01-04T10:16:32.380Z,40
2018-01-04T10:17:33.132Z,40
2018-01-04T10:18:33.814Z,45
2018-01-04T10:19:34.523Z,50
2018-01-04T10:20:35.231Z,55
2018-01-04T10:21:35.940Z,55
2018-01-04T10:22:36.663Z,60
2018-01-04T10:23:37.374Z,60
2018-01-04T10:24:38.096Z,60
2018-01-04T10:25:38.820Z,60
2018-01-04T10:26:39.530Z,60
2018-01-04T10:27:40.240Z,65
2018-01-04T10:28:40.952Z,70
2018-01-04T10:29:41.665Z,80
2018-01-04T10:30:42.375Z,90
2018-01-04T10:31:43.084Z,95
2018-01-04T10:32:43.790Z,95
2018-01-04T10:33:44.499Z,90
2018-01-04T10:34:45.210Z,90
2018-01-04T10:35:45.923Z,90
2018-01-04T10:36:46.633Z,95
2018-01-04T10:37:47.344Z,90
2018-01-04T10:38:48.069Z,80
2018-01-04T10:39:48.777Z,80
2018-01-04T10:40:49.502Z,70
2018-01-04T10:41:50.229Z,60
2018-01-04T10:42:50.941Z,55
2018-01-04T10:43:51.653Z,55
2018-01-04T10:44:52.364Z,60
2018-01-04T10:45:53.076Z,60
2018-01-04T10:46:53.786Z,60
2018-01-04T10:47:54.499Z,60
2018-01-04T10:48:55.221Z,60
2018-01-04T10:49:55.933Z,60
2018-01-04T10:50:56.645Z,60
2018-01-04T10:51:57.356Z,60
2018-01-04T10:52:58.066Z,75
2018-01-04T10:53:58.780Z,80
2018-01-04T10:54:59.492Z,90
2018-01-04T10:56:00.208Z,95
2018-01-04T10:57:00.924Z,115
2018-01-04T10:58:01.650Z,120
2018-01-04T10:59:02.361Z,130
2018-01-04T11:00:03.072Z,135
2018-01-04T11:01:03.795Z,145
2018-01-04T11:02:04.509Z,150
2018-01-04T11:03:05.235Z,165
2018-01-04T11:04:05.947Z,165
2018-01-04T11:05:06.660Z,165
2018-01-04T11:06:07.373Z,170
2018-01-04T11:07:08.087Z,170
2018-01-04T11:08:08.800Z,175
2018-01-04T11:09:09.525Z,170
2018-01-04T11:10:10.237Z,175
2018-01-04T11:11:10.964Z,150
2018-01-04T11:12:11.679Z,130
2018-01-04T11:13:12.403Z,135
2018-01-04T11:14:13.117Z,125
2018-01-04T11:15:13.828Z,105
2018-01-04T11:16:14.542Z,135
2018-01-04T11:17:15.256Z,130
2018-01-04T11:18:15.969Z,130
2018-01-04T11:19:16.682Z,125
2018-01-04T11:20:17.396Z,120
2018-01-04T11:21:18.107Z,110
2018-01-04T11:22:18.836Z,115
2018-01-04T11:23:19.554Z,110
2018-01-04T11:24:20.261Z,95
2018-01-04T11:25:20.970Z,90
2018-01-04T11:26:21.681Z,85
2018-01-04T11:27:22.391Z,75
2018-01-04T11:28:23.107Z,85
2018-01-04T11:29:23.829Z,70
2018-01-04T11:30:24.540Z,110
2018-01-04T11:31:25.255Z,125
2018-01-04T11:32:25.965Z,100
2018-01-04T11:33:26.677Z,105
2018-01-04T11:34:27.404Z,110
2018-01-04T11:35:28.120Z,115
2018-01-04T11:36:28.844Z,125
2018-01-04T11:37:29.562Z,125
2018-01-04T11:38:30.272Z,160
2018-01-04T11:39:30.986Z,160
2018-01-04T11:40:31.698Z,150
2018-01-04T11:41:32.412Z,120
2018-01-04T11:42:33.125Z,145
2018-01-04T11:43:33.851Z,145
2018-01-04T11:44:34.575Z,130
2018-01-04T11:45:35.289Z,145
2018-01-04T11:46:36.001Z,135
2018-01-04T11:47:36.716Z,140
2018-01-04T11:48:37.427Z,140
2018-01-04T11:49:38.139Z,130
2018-01-04T11:50:38.852Z,115
2018-01-04T11:51:39.564Z,110
2018-01-04T11:52:40.277Z,100
2018-01-04T11:53:40.988Z,105
2018-01-04T11:54:41.701Z,105
2018-01-04T11:55:42.416Z,100
2018-01-04T11:56:43.142Z,95
2018-01-04T11:57:43.853Z,85
2018-01-04T11:58:44.563Z,80
2018-01-04T11:59:45.291Z,75
2018-01-04T12:00:46.014Z,75
2018-01-04T12:01:46.730Z,80
2018-01-04T12:02:47.435Z,80
2018-01-04T12:03:48.147Z,85
2018-01-04T12:04:48.873Z,85
2018-01-04T12:05:49.588Z,90
2018-01-04T12:06:50.293Z,90
2018-01-04T12:07:51.005Z,85
2018-01-04T12:08:51.718Z,80
2018-01-04T12:09:52.427Z,80
2018-01-04T12:10:53.137Z,85
2018-01-04T12:11:53.847Z,95
2018-01-04T12:12:54.561Z,100
2018-01-04T12:13:55.273Z,100
2018-01-04T12:14:55.984Z,100
2018-01-04T12:15:56.696Z,105
2018-01-04T12:16:57.408Z,105
2018-01-04T12:17:58.121Z,105
2018-01-04T12:18:58.832Z,100
2018-01-04T12:19:59.559Z,100
2018-01-04T12:21:00.271Z,100
2018-01-04T12:22:00.985Z,105
2018-01-04T12:23:01.696Z,115
2018-01-04T12:24:02.408Z,125
2018-01-04T12:25:03.124Z,125
2018-01-04T12:26:03.835Z,130
2018-01-04T12:27:04.545Z,135
2018-01-04T12:28:05.255Z,135
2018-01-04T12:29:05.980Z,140
2018-01-04T12:30:06.693Z,135
2018-01-04T12:31:07.406Z,130
2018-01-04T12:32:08.121Z,130
2018-01-04T12:33:08.832Z,120
2018-01-04T12:34:09.544Z,120
2018-01-04T12:35:10.270Z,110
2018-01-04T12:36:10.995Z,95
2018-01-04T12:37:11.706Z,80
2018-01-04T12:38:12.418Z,75
2018-01-04T12:39:13.131Z,75
2018-01-04T12:40:13.841Z,80
2018-01-04T12:41:14.554Z,85
2018-01-04T12:42:15.282Z,85
2018-01-04T12:43:16.007Z,90
2018-01-04T12:44:16.718Z,90
2018-01-04T12:45:17.444Z,90
2018-01-04T12:46:18.154Z,90
2018-01-04T12:47:18.866Z,90
2018-01-04T12:48:19.578Z,85
2018-01-04T12:49:20.290Z,85
2018-01-04T12:50:21.036Z,80
2018-01-04T12:51:21.713Z,80
2018-01-04T12:52:22.427Z,75
2018-01-04T12:53:23.145Z,70
2018-01-04T12:54:23.851Z,65
2018-01-04T12:55:24.563Z,65
2018-01-04T12:56:25.274Z,65
2018-01-04T12:57:25.999Z,65
2018-01-04T12:58:26.713Z,65
2018-01-04T12:59:27.429Z,65
2018-01-04T13:00:28.136Z,65
2018-01-04T13:01:28.861Z,65
2018-01-04T13:02:29.571Z,65
2018-01-04T13:03:30.297Z,70
2018-01-04T13:04:31.023Z,75
2018-01-04T13:05:31.732Z,75
2018-01-04T13:06:32.456Z,75
2018-01-04T13:07:33.181Z,70
2018-01-04T13:08:33.909Z,70
2018-01-04T13:09:34.633Z,70
2018-01-04T13:10:35.346Z,70
2018-01-04T13:11:36.072Z,70
2018-01-04T13:12:36.797Z,70
2018-01-04T13:13:37.508Z,70
2018-01-04T13:14:38.220Z,70
2018-01-04T13:15:38.931Z,65
2018-01-04T13:16:39.655Z,65
2018-01-04T13:17:40.378Z,65
2018-01-04T13:18:41.090Z,60
2018-01-04T13:19:41.803Z,60
2018-01-04T13:20:42.519Z,55
2018-01-04T13:21:43.229Z,55
2018-01-04T13:22:43.942Z,50
2018-01-04T13:23:44.652Z,50
2018-01-04T13:24:45.389Z,50
2018-01-04T13:25:46.099Z,55
2018-01-04T13:26:46.810Z,60
2018-01-04T13:27:47.531Z,60
2018-01-04T13:28:48.241Z,60
2018-01-04T13:29:48.952Z,65
2018-01-04T13:30:49.665Z,60
2018-01-04T13:31:50.389Z,60
2018-01-04T13:32:51.100Z,60
2018-01-04T13:33:51.812Z,60
2018-01-04T13:34:52.535Z,60
2018-01-04T13:35:53.259Z,60
2018-01-04T13:36:53.971Z,60
2018-01-04T13:37:54.681Z,60
2018-01-04T13:38:55.392Z,60
2018-01-04T13:39:56.114Z,55
2018-01-04T13:40:56.827Z,45
2018-01-04T13:41:57.536Z,40
2018-01-04T13:42:58.259Z,40
2018-01-04T13:43:58.968Z,40
2018-01-04T13:44:59.676Z,35
2018-01-04T13:46:00.387Z,40
2018-01-04T13:47:01.096Z,40
2018-01-04T13:48:01.809Z,35
2018-01-04T13:49:02.520Z,35
2018-01-04T13:50:03.230Z,40
2018-01-04T13:51:03.953Z,40
2018-01-04T13:52:04.676Z,45
2018-01-04T13:53:05.389Z,50
2018-01-04T13:54:06.110Z,50
2018-01-04T13:55:06.821Z,50
2018-01-04T13:56:07.530Z,50
2018-01-04T13:57:08.263Z,50
2018-01-04T13:58:08.972Z,50
2018-01-04T13:59:09.692Z,45
2018-01-04T14:00:10.400Z,45
2018-01-04T14:01:11.123Z,45
2018-01-04T14:02:11.833Z,40
2018-01-04T14:03:12.554Z,40
2018-01-04T14:04:13.280Z,40
2018-01-04T14:05:13.988Z,40
2018-01-04T14:06:14.708Z,35
2018-01-04T14:07:15.431Z,35
2018-01-04T14:08:16.139Z,35
2018-01-04T14:09:16.864Z,40
2018-01-04T14:10:17.586Z,45
2018-01-04T14:11:18.310Z,50
2018-01-04T14:12:19.021Z,55
2018-01-04T14:13:19.740Z,55
2018-01-04T14:14:20.461Z,50
2018-01-04T14:15:21.186Z,50
2018-01-04T14:16:21.893Z,50
2018-01-04T14:17:22.617Z,50
2018-01-04T14:18:23.310Z,45
2018-01-04T14:19:24.027Z,40
2018-01-04T14:20:24.736Z,40
2018-01-04T14:21:25.459Z,35
2018-01-04T14:22:26.167Z,35
2018-01-04T14:23:26.875Z,35
2018-01-04T14:24:27.595Z,30
2018-01-04T14:25:28.306Z,30
2018-01-04T14:26:29.014Z,30
2018-01-04T14:27:29.736Z,30
2018-01-04T14:28:30.459Z,30
2018-01-04T14:29:31.183Z,25
2018-01-04T14:30:31.893Z,25
2018-01-04T14:31:32.602Z,20
2018-01-04T14:32:33.320Z,20
2018-01-04T14:33:34.028Z,20
2018-01-04T14:34:34.750Z,25
2018-01-04T14:35:35.474Z,25
2018-01-04T14:36:36.180Z,25
2018-01-04T14:37:36.887Z,25
2018-01-04T14:38:37.594Z,20
2018-01-04T14:39:38.310Z,20
2018-01-04T14:40:39.021Z,20